sensor_id;sensor_type;location;lat;lon;timestamp;P1;durP1;ratioP1;P2;durP2;ratioP2
52618;SDS011;38513;53.234;6.568;2022-07-23T00:02:07;10.00;;;4.60;;
52618;SDS011;38513;53.234;6.568;2022-07-23T00:04:36;11.45;;;4.82;;
52618;SDS011;38513;53.234;6.568;2022-07-23T00:07:02;9.27;;;4.60;;
52618;SDS011;38513;53.234;6.568;2022-07-23T00:09:28;10.65;;;5.57;;
52618;SDS011;38513;53.234;6.568;2022-07-23T00:11:56;9.87;;;5.37;;
52618;SDS011;38513;53.234;6.568;2022-07-23T00:14:25;10.85;;;5.47;;
52618;SDS011;38513;53.234;6.568;2022-07-23T00:16:51;9.95;;;5.18;;
52618;SDS011;38513;53.234;6.568;2022-07-23T00:19:18;10.25;;;5.35;;
52618;SDS011;38513;53.234;6.568;2022-07-23T00:21:44;11.10;;;5.00;;
52618;SDS011;38513;53.234;6.568;2022-07-23T00:24:10;8.70;;;5.10;;
52618;SDS011;38513;53.234;6.568;2022-07-23T00:26:36;10.10;;;5.30;;
52618;SDS011;38513;53.234;6.568;2022-07-23T00:29:02;9.02;;;5.20;;
52618;SDS011;38513;53.234;6.568;2022-07-23T00:31:28;11.32;;;5.40;;
52618;SDS011;38513;53.234;6.568;2022-07-23T00:33:55;9.25;;;5.22;;
52618;SDS011;38513;53.234;6.568;2022-07-23T00:36:25;11.88;;;5.35;;
52618;SDS011;38513;53.234;6.568;2022-07-23T00:38:51;10.07;;;5.38;;
52618;SDS011;38513;53.234;6.568;2022-07-23T00:41:18;10.43;;;5.10;;
52618;SDS011;38513;53.234;6.568;2022-07-23T00:43:44;10.33;;;5.13;;
52618;SDS011;38513;53.234;6.568;2022-07-23T00:46:11;10.32;;;5.95;;
52618;SDS011;38513;53.234;6.568;2022-07-23T00:48:37;11.15;;;5.55;;
52618;SDS011;38513;53.234;6.568;2022-07-23T00:51:04;8.13;;;5.20;;
52618;SDS011;38513;53.234;6.568;2022-07-23T00:53:31;9.70;;;5.82;;
52618;SDS011;38513;53.234;6.568;2022-07-23T00:55:57;11.23;;;6.10;;
52618;SDS011;38513;53.234;6.568;2022-07-23T00:58:24;11.73;;;6.45;;
52618;SDS011;38513;53.234;6.568;2022-07-23T01:00:50;10.32;;;5.30;;
52618;SDS011;38513;53.234;6.568;2022-07-23T01:03:16;11.40;;;5.80;;
52618;SDS011;38513;53.234;6.568;2022-07-23T01:05:42;10.85;;;6.55;;
52618;SDS011;38513;53.234;6.568;2022-07-23T01:08:09;11.02;;;5.50;;
52618;SDS011;38513;53.234;6.568;2022-07-23T01:10:35;11.32;;;5.90;;
52618;SDS011;38513;53.234;6.568;2022-07-23T01:13:06;9.20;;;5.78;;
52618;SDS011;38513;53.234;6.568;2022-07-23T01:15:34;10.68;;;5.45;;
52618;SDS011;38513;53.234;6.568;2022-07-23T01:18:01;13.68;;;5.63;;
52618;SDS011;38513;53.234;6.568;2022-07-23T01:20:27;12.45;;;5.32;;
52618;SDS011;38513;53.234;6.568;2022-07-23T01:22:53;11.27;;;5.35;;
52618;SDS011;38513;53.234;6.568;2022-07-23T01:25:19;11.40;;;5.93;;
52618;SDS011;38513;53.234;6.568;2022-07-23T01:27:46;15.32;;;5.82;;
52618;SDS011;38513;53.234;6.568;2022-07-23T01:30:13;9.75;;;5.13;;
52618;SDS011;38513;53.234;6.568;2022-07-23T01:32:39;10.15;;;4.90;;
52618;SDS011;38513;53.234;6.568;2022-07-23T01:35:05;10.90;;;4.93;;
52618;SDS011;38513;53.234;6.568;2022-07-23T01:37:32;12.60;;;4.93;;
52618;SDS011;38513;53.234;6.568;2022-07-23T01:39:58;10.40;;;4.70;;
52618;SDS011;38513;53.234;6.568;2022-07-23T01:42:24;9.70;;;4.95;;
52618;SDS011;38513;53.234;6.568;2022-07-23T01:44:50;9.03;;;4.70;;
52618;SDS011;38513;53.234;6.568;2022-07-23T01:47:16;8.57;;;4.70;;
52618;SDS011;38513;53.234;6.568;2022-07-23T01:49:43;10.82;;;5.50;;
52618;SDS011;38513;53.234;6.568;2022-07-23T01:52:09;9.05;;;4.95;;
52618;SDS011;38513;53.234;6.568;2022-07-23T01:54:36;8.60;;;4.97;;
52618;SDS011;38513;53.234;6.568;2022-07-23T01:57:03;11.82;;;5.10;;
52618;SDS011;38513;53.234;6.568;2022-07-23T01:59:29;10.40;;;5.15;;
52618;SDS011;38513;53.234;6.568;2022-07-23T02:01:56;11.27;;;5.00;;
52618;SDS011;38513;53.234;6.568;2022-07-23T02:04:25;10.55;;;5.57;;
52618;SDS011;38513;53.234;6.568;2022-07-23T02:06:51;10.88;;;5.32;;
52618;SDS011;38513;53.234;6.568;2022-07-23T02:09:23;11.40;;;5.07;;
52618;SDS011;38513;53.234;6.568;2022-07-23T02:11:49;8.60;;;4.50;;
52618;SDS011;38513;53.234;6.568;2022-07-23T02:14:15;8.65;;;4.60;;
52618;SDS011;38513;53.234;6.568;2022-07-23T02:16:42;10.82;;;4.53;;
52618;SDS011;38513;53.234;6.568;2022-07-23T02:19:08;10.15;;;4.57;;
52618;SDS011;38513;53.234;6.568;2022-07-23T02:21:34;8.93;;;4.70;;
52618;SDS011;38513;53.234;6.568;2022-07-23T02:24:00;8.73;;;4.57;;
52618;SDS011;38513;53.234;6.568;2022-07-23T02:26:26;8.30;;;4.32;;
52618;SDS011;38513;53.234;6.568;2022-07-23T02:28:53;10.15;;;4.60;;
52618;SDS011;38513;53.234;6.568;2022-07-23T02:31:19;9.00;;;4.18;;
52618;SDS011;38513;53.234;6.568;2022-07-23T02:33:45;9.70;;;4.22;;
52618;SDS011;38513;53.234;6.568;2022-07-23T02:36:11;8.88;;;4.40;;
52618;SDS011;38513;53.234;6.568;2022-07-23T02:38:37;9.60;;;4.25;;
52618;SDS011;38513;53.234;6.568;2022-07-23T02:41:04;10.23;;;4.70;;
52618;SDS011;38513;53.234;6.568;2022-07-23T02:43:33;9.80;;;4.60;;
52618;SDS011;38513;53.234;6.568;2022-07-23T02:45:59;9.88;;;4.88;;
52618;SDS011;38513;53.234;6.568;2022-07-23T02:48:26;8.40;;;4.45;;
52618;SDS011;38513;53.234;6.568;2022-07-23T02:50:55;9.77;;;5.23;;
52618;SDS011;38513;53.234;6.568;2022-07-23T02:53:22;10.15;;;5.00;;
52618;SDS011;38513;53.234;6.568;2022-07-23T02:55:48;8.30;;;4.60;;
52618;SDS011;38513;53.234;6.568;2022-07-23T02:58:14;9.03;;;4.90;;
52618;SDS011;38513;53.234;6.568;2022-07-23T03:00:40;10.07;;;4.47;;
52618;SDS011;38513;53.234;6.568;2022-07-23T03:03:06;10.30;;;4.78;;
52618;SDS011;38513;53.234;6.568;2022-07-23T03:05:36;7.55;;;4.55;;
52618;SDS011;38513;53.234;6.568;2022-07-23T03:08:02;7.95;;;4.45;;
52618;SDS011;38513;53.234;6.568;2022-07-23T03:10:28;8.18;;;4.20;;
52618;SDS011;38513;53.234;6.568;2022-07-23T03:12:55;7.80;;;4.00;;
52618;SDS011;38513;53.234;6.568;2022-07-23T03:15:21;9.40;;;4.53;;
52618;SDS011;38513;53.234;6.568;2022-07-23T03:17:49;9.77;;;4.47;;
52618;SDS011;38513;53.234;6.568;2022-07-23T03:20:16;9.63;;;4.63;;
52618;SDS011;38513;53.234;6.568;2022-07-23T03:22:42;9.18;;;4.28;;
52618;SDS011;38513;53.234;6.568;2022-07-23T03:25:11;7.93;;;4.10;;
52618;SDS011;38513;53.234;6.568;2022-07-23T03:27:37;9.65;;;4.00;;
52618;SDS011;38513;53.234;6.568;2022-07-23T03:30:03;9.43;;;4.00;;
52618;SDS011;38513;53.234;6.568;2022-07-23T03:32:29;9.95;;;4.57;;
52618;SDS011;38513;53.234;6.568;2022-07-23T03:34:56;10.02;;;4.65;;
52618;SDS011;38513;53.234;6.568;2022-07-23T03:37:22;9.93;;;4.50;;
52618;SDS011;38513;53.234;6.568;2022-07-23T03:39:49;9.20;;;4.18;;
52618;SDS011;38513;53.234;6.568;2022-07-23T03:42:15;8.63;;;4.23;;
52618;SDS011;38513;53.234;6.568;2022-07-23T03:44:44;9.00;;;4.07;;
52618;SDS011;38513;53.234;6.568;2022-07-23T03:47:13;8.85;;;4.45;;
52618;SDS011;38513;53.234;6.568;2022-07-23T03:49:41;10.40;;;4.78;;
52618;SDS011;38513;53.234;6.568;2022-07-23T03:52:10;8.73;;;4.28;;
52618;SDS011;38513;53.234;6.568;2022-07-23T03:54:36;8.98;;;4.60;;
52618;SDS011;38513;53.234;6.568;2022-07-23T03:57:03;9.20;;;4.65;;
52618;SDS011;38513;53.234;6.568;2022-07-23T03:59:29;10.88;;;4.43;;
52618;SDS011;38513;53.234;6.568;2022-07-23T04:01:55;11.98;;;4.25;;
52618;SDS011;38513;53.234;6.568;2022-07-23T04:04:21;8.73;;;4.30;;
52618;SDS011;38513;53.234;6.568;2022-07-23T04:06:50;8.20;;;3.90;;
52618;SDS011;38513;53.234;6.568;2022-07-23T04:09:16;8.60;;;3.40;;
52618;SDS011;38513;53.234;6.568;2022-07-23T04:11:42;9.32;;;3.63;;
52618;SDS011;38513;53.234;6.568;2022-07-23T04:14:09;10.88;;;4.03;;
52618;SDS011;38513;53.234;6.568;2022-07-23T04:16:35;9.70;;;3.90;;
52618;SDS011;38513;53.234;6.568;2022-07-23T04:19:01;9.50;;;3.67;;
52618;SDS011;38513;53.234;6.568;2022-07-23T04:21:29;10.45;;;4.20;;
52618;SDS011;38513;53.234;6.568;2022-07-23T04:24:01;9.98;;;4.97;;
52618;SDS011;38513;53.234;6.568;2022-07-23T04:26:27;9.63;;;4.72;;
52618;SDS011;38513;53.234;6.568;2022-07-23T04:28:53;10.85;;;5.30;;
52618;SDS011;38513;53.234;6.568;2022-07-23T04:31:20;9.43;;;5.30;;
52618;SDS011;38513;53.234;6.568;2022-07-23T04:33:46;11.35;;;5.32;;
52618;SDS011;38513;53.234;6.568;2022-07-23T04:36:12;12.50;;;5.85;;
52618;SDS011;38513;53.234;6.568;2022-07-23T04:38:38;10.63;;;5.50;;
52618;SDS011;38513;53.234;6.568;2022-07-23T04:41:04;9.23;;;5.55;;
52618;SDS011;38513;53.234;6.568;2022-07-23T04:43:30;10.20;;;5.30;;
52618;SDS011;38513;53.234;6.568;2022-07-23T04:45:56;9.57;;;5.40;;
52618;SDS011;38513;53.234;6.568;2022-07-23T04:48:22;9.97;;;5.43;;
52618;SDS011;38513;53.234;6.568;2022-07-23T04:50:49;12.13;;;5.23;;
52618;SDS011;38513;53.234;6.568;2022-07-23T04:53:15;9.85;;;5.70;;
52618;SDS011;38513;53.234;6.568;2022-07-23T04:55:41;10.00;;;5.35;;
52618;SDS011;38513;53.234;6.568;2022-07-23T04:58:07;10.77;;;5.17;;
52618;SDS011;38513;53.234;6.568;2022-07-23T05:00:33;9.75;;;5.05;;
52618;SDS011;38513;53.234;6.568;2022-07-23T05:02:59;8.82;;;4.90;;
52618;SDS011;38513;53.234;6.568;2022-07-23T05:05:25;9.32;;;5.43;;
52618;SDS011;38513;53.234;6.568;2022-07-23T05:07:55;8.53;;;5.10;;
52618;SDS011;38513;53.234;6.568;2022-07-23T05:10:21;10.65;;;5.13;;
52618;SDS011;38513;53.234;6.568;2022-07-23T05:12:50;9.43;;;5.00;;
52618;SDS011;38513;53.234;6.568;2022-07-23T05:15:16;9.32;;;4.88;;
52618;SDS011;38513;53.234;6.568;2022-07-23T05:17:42;9.93;;;4.82;;
52618;SDS011;38513;53.234;6.568;2022-07-23T05:20:11;10.65;;;4.70;;
52618;SDS011;38513;53.234;6.568;2022-07-23T05:22:38;9.77;;;5.00;;
52618;SDS011;38513;53.234;6.568;2022-07-23T05:25:04;10.10;;;5.20;;
52618;SDS011;38513;53.234;6.568;2022-07-23T05:27:31;9.65;;;4.85;;
52618;SDS011;38513;53.234;6.568;2022-07-23T05:29:57;8.80;;;4.60;;
52618;SDS011;38513;53.234;6.568;2022-07-23T05:32:23;9.95;;;4.93;;
52618;SDS011;38513;53.234;6.568;2022-07-23T05:34:49;10.05;;;4.60;;
52618;SDS011;38513;53.234;6.568;2022-07-23T05:37:16;8.60;;;4.55;;
52618;SDS011;38513;53.234;6.568;2022-07-23T05:39:42;8.60;;;4.25;;
52618;SDS011;38513;53.234;6.568;2022-07-23T05:42:08;9.27;;;4.40;;
52618;SDS011;38513;53.234;6.568;2022-07-23T05:44:35;9.05;;;4.60;;
52618;SDS011;38513;53.234;6.568;2022-07-23T05:47:01;9.40;;;4.10;;
52618;SDS011;38513;53.234;6.568;2022-07-23T05:49:27;8.65;;;3.80;;
52618;SDS011;38513;53.234;6.568;2022-07-23T05:51:53;7.80;;;3.67;;
52618;SDS011;38513;53.234;6.568;2022-07-23T05:54:19;7.60;;;3.70;;
52618;SDS011;38513;53.234;6.568;2022-07-23T05:56:46;10.02;;;3.80;;
52618;SDS011;38513;53.234;6.568;2022-07-23T05:59:12;7.28;;;3.42;;
52618;SDS011;38513;53.234;6.568;2022-07-23T06:01:39;8.93;;;3.42;;
52618;SDS011;38513;53.234;6.568;2022-07-23T06:04:05;8.88;;;3.38;;
52618;SDS011;38513;53.234;6.568;2022-07-23T06:06:32;8.40;;;3.35;;
52618;SDS011;38513;53.234;6.568;2022-07-23T06:08:58;9.82;;;3.80;;
52618;SDS011;38513;53.234;6.568;2022-07-23T06:11:24;7.10;;;3.60;;
52618;SDS011;38513;53.234;6.568;2022-07-23T06:13:55;9.15;;;3.15;;
52618;SDS011;38513;53.234;6.568;2022-07-23T06:16:21;6.85;;;2.90;;
52618;SDS011;38513;53.234;6.568;2022-07-23T06:18:47;7.30;;;3.17;;
52618;SDS011;38513;53.234;6.568;2022-07-23T06:21:14;6.80;;;2.80;;
52618;SDS011;38513;53.234;6.568;2022-07-23T06:23:43;7.13;;;2.88;;
52618;SDS011;38513;53.234;6.568;2022-07-23T06:26:09;7.55;;;2.60;;
52618;SDS011;38513;53.234;6.568;2022-07-23T06:28:39;6.70;;;2.50;;
52618;SDS011;38513;53.234;6.568;2022-07-23T06:31:11;6.65;;;2.50;;
52618;SDS011;38513;53.234;6.568;2022-07-23T06:33:37;8.00;;;2.83;;
52618;SDS011;38513;53.234;6.568;2022-07-23T06:36:03;5.85;;;2.30;;
52618;SDS011;38513;53.234;6.568;2022-07-23T06:38:29;5.75;;;2.30;;
52618;SDS011;38513;53.234;6.568;2022-07-23T06:40:55;7.60;;;2.80;;
52618;SDS011;38513;53.234;6.568;2022-07-23T06:43:25;6.00;;;2.10;;
52618;SDS011;38513;53.234;6.568;2022-07-23T06:45:51;6.35;;;2.40;;
52618;SDS011;38513;53.234;6.568;2022-07-23T06:48:20;6.13;;;2.23;;
52618;SDS011;38513;53.234;6.568;2022-07-23T06:50:47;6.38;;;2.38;;
52618;SDS011;38513;53.234;6.568;2022-07-23T06:53:14;7.43;;;2.70;;
52618;SDS011;38513;53.234;6.568;2022-07-23T06:55:46;8.15;;;2.60;;
52618;SDS011;38513;53.234;6.568;2022-07-23T06:58:15;5.30;;;2.10;;
52618;SDS011;38513;53.234;6.568;2022-07-23T07:00:43;5.60;;;2.13;;
52618;SDS011;38513;53.234;6.568;2022-07-23T07:03:09;6.22;;;2.30;;
52618;SDS011;38513;53.234;6.568;2022-07-23T07:05:35;7.22;;;2.60;;
52618;SDS011;38513;53.234;6.568;2022-07-23T07:08:02;7.35;;;2.60;;
52618;SDS011;38513;53.234;6.568;2022-07-23T07:10:28;6.22;;;2.15;;
52618;SDS011;38513;53.234;6.568;2022-07-23T07:12:54;6.88;;;2.08;;
52618;SDS011;38513;53.234;6.568;2022-07-23T07:15:20;5.30;;;1.60;;
52618;SDS011;38513;53.234;6.568;2022-07-23T07:17:46;4.38;;;1.30;;
52618;SDS011;38513;53.234;6.568;2022-07-23T07:20:13;4.40;;;1.20;;
52618;SDS011;38513;53.234;6.568;2022-07-23T07:22:39;4.93;;;1.40;;
52618;SDS011;38513;53.234;6.568;2022-07-23T07:25:05;3.88;;;1.00;;
52618;SDS011;38513;53.234;6.568;2022-07-23T07:27:31;3.10;;;0.88;;
52618;SDS011;38513;53.234;6.568;2022-07-23T07:29:58;3.15;;;0.80;;
52618;SDS011;38513;53.234;6.568;2022-07-23T07:32:24;3.35;;;0.95;;
52618;SDS011;38513;53.234;6.568;2022-07-23T07:34:50;2.63;;;0.75;;
52618;SDS011;38513;53.234;6.568;2022-07-23T07:37:16;3.70;;;0.80;;
52618;SDS011;38513;53.234;6.568;2022-07-23T07:39:43;2.28;;;0.60;;
52618;SDS011;38513;53.234;6.568;2022-07-23T07:42:09;4.28;;;0.90;;
52618;SDS011;38513;53.234;6.568;2022-07-23T07:44:35;2.38;;;0.60;;
52618;SDS011;38513;53.234;6.568;2022-07-23T07:47:02;2.08;;;0.70;;
52618;SDS011;38513;53.234;6.568;2022-07-23T07:49:28;2.53;;;0.70;;
52618;SDS011;38513;53.234;6.568;2022-07-23T07:51:54;2.78;;;0.70;;
52618;SDS011;38513;53.234;6.568;2022-07-23T07:54:20;3.33;;;0.75;;
52618;SDS011;38513;53.234;6.568;2022-07-23T07:56:46;3.40;;;0.80;;
52618;SDS011;38513;53.234;6.568;2022-07-23T07:59:13;2.28;;;0.70;;
52618;SDS011;38513;53.234;6.568;2022-07-23T08:01:40;4.00;;;0.70;;
52618;SDS011;38513;53.234;6.568;2022-07-23T08:04:06;3.60;;;0.67;;
52618;SDS011;38513;53.234;6.568;2022-07-23T08:06:32;4.40;;;0.77;;
52618;SDS011;38513;53.234;6.568;2022-07-23T08:08:58;2.72;;;0.90;;
52618;SDS011;38513;53.234;6.568;2022-07-23T08:11:25;4.38;;;0.88;;
52618;SDS011;38513;53.234;6.568;2022-07-23T08:13:51;3.73;;;0.70;;
52618;SDS011;38513;53.234;6.568;2022-07-23T08:16:20;2.50;;;0.60;;
52618;SDS011;38513;53.234;6.568;2022-07-23T08:18:46;3.73;;;0.63;;
52618;SDS011;38513;53.234;6.568;2022-07-23T08:21:12;3.78;;;0.60;;
52618;SDS011;38513;53.234;6.568;2022-07-23T08:23:41;3.20;;;0.65;;
52618;SDS011;38513;53.234;6.568;2022-07-23T08:26:07;4.20;;;0.83;;
52618;SDS011;38513;53.234;6.568;2022-07-23T08:28:33;3.65;;;0.65;;
52618;SDS011;38513;53.234;6.568;2022-07-23T08:31:00;2.70;;;0.70;;
52618;SDS011;38513;53.234;6.568;2022-07-23T08:33:27;2.70;;;0.77;;
52618;SDS011;38513;53.234;6.568;2022-07-23T08:35:53;2.70;;;0.70;;
52618;SDS011;38513;53.234;6.568;2022-07-23T08:38:22;3.30;;;0.70;;
52618;SDS011;38513;53.234;6.568;2022-07-23T08:40:53;2.10;;;0.60;;
52618;SDS011;38513;53.234;6.568;2022-07-23T08:43:21;3.20;;;0.70;;
52618;SDS011;38513;53.234;6.568;2022-07-23T08:45:51;2.75;;;0.75;;
52618;SDS011;38513;53.234;6.568;2022-07-23T08:48:19;2.70;;;0.70;;
52618;SDS011;38513;53.234;6.568;2022-07-23T08:50:54;2.83;;;0.70;;
52618;SDS011;38513;53.234;6.568;2022-07-23T08:53:21;4.18;;;0.90;;
52618;SDS011;38513;53.234;6.568;2022-07-23T08:55:52;3.00;;;0.75;;
52618;SDS011;38513;53.234;6.568;2022-07-23T08:58:19;3.33;;;0.80;;
52618;SDS011;38513;53.234;6.568;2022-07-23T09:00:49;4.53;;;0.83;;
52618;SDS011;38513;53.234;6.568;2022-07-23T09:03:26;3.17;;;0.80;;
52618;SDS011;38513;53.234;6.568;2022-07-23T09:05:54;2.22;;;0.85;;
52618;SDS011;38513;53.234;6.568;2022-07-23T09:08:25;3.88;;;0.80;;
52618;SDS011;38513;53.234;6.568;2022-07-23T09:11:00;3.20;;;0.80;;
52618;SDS011;38513;53.234;6.568;2022-07-23T09:15:53;4.15;;;1.00;;
52618;SDS011;38513;53.234;6.568;2022-07-23T09:18:30;3.40;;;0.90;;
52618;SDS011;38513;53.234;6.568;2022-07-23T09:21:07;3.15;;;0.70;;
52618;SDS011;38513;53.234;6.568;2022-07-23T09:23:41;3.92;;;1.20;;
52618;SDS011;38513;53.234;6.568;2022-07-23T09:26:20;2.95;;;0.90;;
52618;SDS011;38513;53.234;6.568;2022-07-23T09:28:50;3.33;;;0.90;;
52618;SDS011;38513;53.234;6.568;2022-07-23T09:31:18;4.35;;;1.10;;
52618;SDS011;38513;53.234;6.568;2022-07-23T09:33:44;2.67;;;0.70;;
52618;SDS011;38513;53.234;6.568;2022-07-23T09:36:10;3.90;;;1.00;;
52618;SDS011;38513;53.234;6.568;2022-07-23T09:38:47;3.45;;;0.98;;
52618;SDS011;38513;53.234;6.568;2022-07-23T09:41:13;3.92;;;0.80;;
52618;SDS011;38513;53.234;6.568;2022-07-23T09:43:39;3.20;;;0.80;;
52618;SDS011;38513;53.234;6.568;2022-07-23T09:46:22;3.92;;;0.80;;
